Ponca City, Oklahoma
Current Conditions -  °F | °C
As of 8:53 PM on Wednesday 22 Oct 2014 (Local Time) from KPNC Reporting Station
Overcast Overcast  
Wind Chill: 72°   Ceiling: 4900
Heat Index: 72°   Visibility: 10mi
Dew Point: 58°   Wind: 9mph
Humidity: 61%   Direction: 170°S
Pressure: 30.08"   Gusts: NA
Location:  36.7°N, 97.08°W
Report Text: KPNC 230153Z AUTO 17008KT 10SM BKN049 BKN055 OVC110 22/14 A3008 RMK AO2 RAB24E33 SLP176 P0000 T02220144
Loading
Personal Weather Stations






























Interactive Weather Map New forecast layout! Learn more

10-Day Weather Forecast

Advertisements
Track Severe Weather on mobile